Time;durP1;ratioP1;P1;durP2;ratioP2;P2;SDS_P1;SDS_P2;PMS_P1;PMS_P2;Temp;Humidity;BMP_temperature;BMP_pressure;BME280_temperature;BME280_humidity;BME280_pressure;Samples;Min_cycle;Max_cycle;Signal;HPM_P1;HPM_P2
2022/01/10 00:00:39;;;;;;;14.33;12.43;;;;;;;4.09;81.46;100362.13;5076280;28;20451;-83
2022/01/10 00:03:06;;;;;;;13.80;11.57;;;;;;;3.90;81.39;100316.03;5072368;28;20103;-83
2022/01/10 00:05:35;;;;;;;13.67;12.20;;;;;;;2.93;81.21;100136.00;5071020;28;20049;-84
2022/01/10 00:08:04;;;;;;;12.43;11.13;;;;;;;3.50;80.79;100213.66;5070059;28;20040;-83
2022/01/10 00:10:35;;;;;;;12.07;10.87;;;;;;;3.19;80.54;100157.09;5069584;28;20050;-84
2022/01/10 00:13:02;;;;;;;11.73;10.20;;;;;;;2.98;80.29;100109.50;5070181;28;20098;-83
2022/01/10 00:15:29;;;;;;;11.20;10.00;;;;;;;4.17;79.95;100262.63;5069914;28;20068;-84
2022/01/10 00:17:56;;;;;;;10.77;9.60;;;;;;;4.47;80.38;100299.97;5069178;28;20091;-83
2022/01/10 00:20:22;;;;;;;11.47;9.77;;;;;;;3.24;79.95;100106.97;5069084;28;20550;-83
2022/01/10 00:22:50;;;;;;;11.70;9.97;;;;;;;3.64;79.89;100153.22;5069189;28;20121;-83
2022/01/10 00:25:22;;;;;;;11.27;9.87;;;;;;;4.39;79.83;100286.47;5068894;28;20129;-83
2022/01/10 00:27:52;;;;;;;9.55;8.20;;;;;;;3.82;80.70;100192.31;5070232;28;20048;-81
2022/01/10 00:30:21;;;;;;;7.13;6.50;;;;;;;4.35;80.56;100278.94;5069416;28;20045;-82
2022/01/10 00:32:51;;;;;;;6.97;6.27;;;;;;;4.31;80.53;100251.19;5069085;28;20047;-82
2022/01/10 00:35:18;;;;;;;7.00;6.30;;;;;;;4.15;79.80;100225.09;5070660;28;20040;-82
2022/01/10 00:37:46;;;;;;;7.07;6.40;;;;;;;4.45;80.04;100286.09;5070500;28;20526;-83
2022/01/10 00:40:17;;;;;;;5.77;5.23;;;;;;;4.15;79.80;100248.75;5068836;28;20048;-84
2022/01/10 00:42:55;;;;;;;6.32;5.50;;;;;;;3.37;79.95;100124.41;5069353;28;20041;-83
2022/01/10 00:45:26;;;;;;;4.77;4.33;;;;;;;4.46;80.45;100307.94;5068993;28;20051;-81
2022/01/10 00:47:59;;;;;;;6.60;5.90;;;;;;;4.53;80.25;100319.72;5068371;28;20385;-81
2022/01/10 00:50:27;;;;;;;8.57;7.70;;;;;;;4.47;80.14;100296.50;5068082;28;20492;-82
2022/01/10 00:52:54;;;;;;;9.30;7.30;;;;;;;3.20;80.12;100115.03;5070291;28;20445;-81
2022/01/10 00:55:21;;;;;;;11.95;10.57;;;;;;;4.32;80.38;100290.50;5068148;28;20052;-82
2022/01/10 00:57:48;;;;;;;11.60;10.40;;;;;;;3.92;79.17;100240.63;5067796;28;20531;-82
2022/01/10 01:00:16;;;;;;;11.63;10.37;;;;;;;3.75;79.26;100212.03;5068511;28;20049;-82
2022/01/10 01:02:43;;;;;;;13.53;10.70;;;;;;;3.88;79.31;100252.28;5068264;28;20060;-81
2022/01/10 01:05:17;;;;;;;12.87;10.57;;;;;;;3.92;79.28;100261.66;5069378;28;20060;-82
2022/01/10 01:07:43;;;;;;;13.43;12.00;;;;;;;4.12;78.87;100304.13;5067857;28;20109;-81
2022/01/10 01:15:20;;;;;;;14.32;10.93;;;;;;;4.12;79.19;100331.22;5068177;28;20084;-80
2022/01/10 01:25:58;;;;;;;12.70;10.40;;;;;;;4.30;78.53;100368.59;5069178;28;20052;-81
2022/01/10 01:28:26;;;;;;;11.65;10.30;;;;;;;4.08;78.37;100353.41;5067297;28;20094;-83
2022/01/10 01:30:53;;;;;;;11.63;10.43;;;;;;;4.20;78.79;100375.38;5067567;28;20041;-81
2022/01/10 01:33:20;;;;;;;12.23;10.40;;;;;;;3.26;77.91;100233.63;5068027;28;20051;-82
2022/01/10 01:35:47;;;;;;;15.17;12.03;;;;;;;3.67;79.19;100314.09;5067095;28;20140;-80
2022/01/10 01:38:14;;;;;;;13.13;11.80;;;;;;;3.50;78.93;100300.28;5067753;28;20579;-80
2022/01/10 01:40:48;;;;;;;13.47;11.27;;;;;;;2.59;78.68;100142.56;5067435;28;20049;-82
2022/01/10 01:43:15;;;;;;;12.50;11.30;;;;;;;3.73;79.15;100332.06;5067405;28;20529;-81
2022/01/10 01:45:45;;;;;;;12.13;10.43;;;;;;;3.58;79.04;100308.47;5066992;28;20056;-80
2022/01/10 01:48:12;;;;;;;12.03;10.13;;;;;;;2.86;78.56;100178.47;5067322;28;20049;-80
2022/01/10 01:50:40;;;;;;;12.03;9.77;;;;;;;3.63;78.94;100303.78;5067898;28;20535;-80
2022/01/10 01:53:07;;;;;;;10.33;9.33;;;;;;;4.07;78.70;100376.19;5067643;28;20072;-82
2022/01/10 01:55:34;;;;;;;11.10;9.70;;;;;;;3.83;78.20;100335.78;5067322;28;20102;-81
2022/01/10 01:58:01;;;;;;;11.20;10.10;;;;;;;3.18;78.43;100248.06;5067380;28;20098;-81
2022/01/10 02:00:28;;;;;;;11.40;10.00;;;;;;;3.78;78.92;100345.75;5066714;28;20481;-81
2022/01/10 02:02:55;;;;;;;11.23;9.63;;;;;;;3.89;78.97;100371.31;5062845;28;20106;-82
2022/01/10 02:05:24;;;;;;;12.27;10.97;;;;;;;3.92;78.46;100369.31;5063686;28;20135;-81
2022/01/10 02:07:51;;;;;;;11.80;10.60;;;;;;;3.73;78.29;100345.19;5063458;28;20665;-82
2022/01/10 02:10:18;;;;;;;11.77;10.57;;;;;;;3.89;78.76;100393.16;5066013;28;20074;-81
2022/01/10 02:12:45;;;;;;;12.50;11.20;;;;;;;3.09;78.56;100267.00;5067517;28;20087;-81
2022/01/10 02:15:32;;;;;;;12.33;11.13;;;;;;;3.85;78.26;100383.78;5066914;28;20540;-81
2022/01/10 02:18:00;;;;;;;12.30;10.53;;;;;;;3.71;78.72;100368.91;5066213;28;20048;-82
2022/01/10 02:20:33;;;;;;;14.13;11.27;;;;;;;3.77;79.22;100386.06;5066742;28;20408;-82
2022/01/10 02:23:01;;;;;;;13.00;11.67;;;;;;;3.74;78.93;100387.13;5066604;28;20090;-82
2022/01/10 02:25:28;;;;;;;14.43;12.20;;;;;;;3.66;78.38;100378.03;5066536;28;20170;-81
2022/01/10 02:27:56;;;;;;;14.40;11.70;;;;;;;3.47;78.57;100350.34;5066364;28;20412;-81
2022/01/10 02:30:23;;;;;;;12.07;10.77;;;;;;;3.45;78.56;100357.47;5066509;28;20052;-81
2022/01/10 02:32:49;;;;;;;12.93;11.63;;;;;;;3.29;78.10;100325.25;5067913;28;20056;-82
2022/01/10 02:35:35;;;;;;;12.43;10.90;;;;;;;3.61;78.27;100376.53;5066431;28;20162;-82
2022/01/10 02:38:02;;;;;;;12.83;10.57;;;;;;;3.11;78.99;100311.50;5066948;28;20066;-82
2022/01/10 02:40:30;;;;;;;13.83;11.40;;;;;;;3.60;78.74;100385.34;5066303;28;20048;-83
2022/01/10 02:42:58;;;;;;;13.23;11.37;;;;;;;3.47;78.98;100371.34;5068335;28;20051;-81
2022/01/10 02:45:28;;;;;;;11.40;10.30;;;;;;;3.55;79.26;100374.31;5067123;28;20131;-82
2022/01/10 02:47:54;;;;;;;11.30;10.20;;;;;;;3.48;80.01;100373.00;5066602;28;20060;-82
2022/01/10 02:50:21;;;;;;;12.83;11.07;;;;;;;3.55;79.48;100374.31;5066256;28;20087;-80
2022/01/10 02:52:49;;;;;;;11.70;10.50;;;;;;;2.95;79.88;100272.28;5068085;28;20511;-81
2022/01/10 02:55:15;;;;;;;12.33;10.00;;;;;;;3.48;79.34;100361.69;5068221;28;20091;-81
2022/01/10 02:57:43;;;;;;;11.50;10.33;;;;;;;3.13;79.73;100300.00;5067216;28;20131;-81
2022/01/10 03:00:22;;;;;;;11.17;9.70;;;;;;;3.57;79.32;100361.09;5066306;28;20056;-81
2022/01/10 03:02:50;;;;;;;11.63;9.80;;;;;;;3.53;79.31;100349.94;5065817;28;20579;-82
2022/01/10 03:05:18;;;;;;;11.87;10.37;;;;;;;3.24;78.86;100306.34;5065856;28;20063;-81
2022/01/10 03:07:46;;;;;;;12.27;9.73;;;;;;;3.63;79.11;100371.19;5067331;28;20070;-81
2022/01/10 03:10:12;;;;;;;11.23;9.93;;;;;;;3.71;78.64;100378.56;5067329;28;20045;-81
2022/01/10 03:12:40;;;;;;;10.10;9.07;;;;;;;3.73;78.62;100385.41;5065975;28;20076;-83
2022/01/10 03:15:08;;;;;;;9.23;8.30;;;;;;;3.63;78.03;100353.66;5065551;28;20131;-81
2022/01/10 03:17:36;;;;;;;11.40;9.13;;;;;;;3.80;78.17;100378.00;5065499;28;20049;-81
2022/01/10 03:20:06;;;;;;;14.40;8.33;;;;;;;3.81;77.80;100374.41;5065423;28;20051;-79
2022/01/10 03:22:33;;;;;;;11.37;10.10;;;;;;;3.63;78.20;100340.53;5065614;28;20048;-81
2022/01/10 03:25:00;;;;;;;10.23;8.60;;;;;;;3.90;77.67;100379.06;5065924;28;20052;-80
2022/01/10 03:27:27;;;;;;;9.03;8.13;;;;;;;3.45;78.28;100304.09;5065053;28;20158;-81
2022/01/10 03:29:54;;;;;;;9.63;7.97;;;;;;;3.95;77.77;100374.38;5065047;28;20270;-79
2022/01/10 03:32:21;;;;;;;10.10;8.73;;;;;;;3.92;78.07;100374.56;5065415;28;20129;-81
2022/01/10 03:34:47;;;;;;;8.27;7.47;;;;;;;3.97;77.96;100380.38;5065878;28;20109;-80
2022/01/10 03:37:14;;;;;;;8.40;7.50;;;;;;;3.98;78.11;100378.56;5065240;28;20044;-81
2022/01/10 03:39:44;;;;;;;8.33;7.50;;;;;;;3.56;77.36;100285.91;5065179;28;20189;-81
2022/01/10 03:42:12;;;;;;;8.43;7.63;;;;;;;3.91;77.47;100357.16;5065313;28;20139;-81
2022/01/10 03:44:39;;;;;;;7.80;6.53;;;;;;;3.89;77.87;100351.16;5066427;28;20201;-81
2022/01/10 03:47:06;;;;;;;7.53;6.80;;;;;;;4.05;77.72;100388.63;5066328;28;20060;-80
2022/01/10 03:49:33;;;;;;;7.97;7.17;;;;;;;4.07;77.93;100386.69;5065266;28;20560;-80
2022/01/10 03:52:00;;;;;;;9.03;7.80;;;;;;;4.05;77.83;100399.13;5065043;28;20150;-81
2022/01/10 03:54:26;;;;;;;8.93;8.03;;;;;;;4.04;77.86;100397.41;5064524;28;20130;-80
2022/01/10 03:56:53;;;;;;;10.30;8.57;;;;;;;3.71;77.76;100355.78;5064753;28;20048;-82
2022/01/10 03:59:20;;;;;;;10.73;9.73;;;;;;;3.95;77.45;100398.00;5064226;28;20090;-80
2022/01/10 04:01:47;;;;;;;11.80;10.33;;;;;;;3.42;76.03;100305.16;5064684;28;20052;-80
2022/01/10 04:04:14;;;;;;;10.07;9.07;;;;;;;3.82;75.60;100397.97;5066495;28;20052;-82
2022/01/10 04:06:41;;;;;;;15.30;9.97;;;;;;;3.71;75.31;100391.69;5064959;28;20049;-81
2022/01/10 04:09:08;;;;;;;11.67;10.40;;;;;;;3.71;74.51;100400.41;5064730;28;20090;-80
2022/01/10 04:11:35;;;;;;;13.83;11.70;;;;;;;3.70;74.67;100395.28;5064533;28;20522;-81
2022/01/10 04:14:02;;;;;;;14.93;11.93;;;;;;;3.63;74.32;100400.06;5068539;28;20045;-82
2022/01/10 04:16:29;;;;;;;13.20;11.87;;;;;;;3.53;73.51;100396.34;5071574;28;20045;-80
2022/01/10 04:18:58;;;;;;;15.07;13.43;;;;;;;3.79;72.23;100428.84;5067357;28;20052;-81
2022/01/10 04:21:25;;;;;;;16.00;13.93;;;;;;;3.69;71.27;100420.69;5064932;28;20652;-80
2022/01/10 04:23:51;;;;;;;17.50;15.20;;;;;;;3.66;71.54;100427.91;5064790;28;20166;-81
2022/01/10 04:26:18;;;;;;;17.10;15.17;;;;;;;3.58;71.29;100423.16;5064683;28;20084;-82
2022/01/10 04:28:45;;;;;;;18.77;16.87;;;;;;;3.40;71.35;100406.78;5063888;28;20052;-81
2022/01/10 04:31:12;;;;;;;19.37;17.27;;;;;;;3.15;71.49;100387.28;5065474;28;20074;-80
2022/01/10 04:33:39;;;;;;;20.80;17.83;;;;;;;3.53;70.97;100454.94;5065218;28;20487;-82
2022/01/10 04:36:06;;;;;;;20.87;18.10;;;;;;;3.51;71.86;100455.97;5065424;28;20135;-80
2022/01/10 04:38:34;;;;;;;23.73;20.90;;;;;;;3.18;71.92;100410.72;5064771;28;20052;-80
2022/01/10 04:41:04;;;;;;;24.23;20.53;;;;;;;3.38;71.76;100446.22;5064656;28;20140;-80
2022/01/10 04:43:30;;;;;;;23.43;20.97;;;;;;;3.40;72.10;100454.84;5064227;28;20221;-81
2022/01/10 04:46:00;;;;;;;28.27;21.53;;;;;;;3.06;71.54;100403.59;5063804;28;20071;-81
2022/01/10 04:48:27;;;;;;;25.07;21.53;;;;;;;3.30;71.90;100458.97;5064607;28;20102;-81
2022/01/10 04:51:13;;;;;;;27.80;23.27;;;;;;;2.59;72.26;100354.00;5066341;28;20056;-81
2022/01/10 04:53:43;;;;;;;24.23;21.50;;;;;;;2.99;72.66;100444.25;5064051;28;20504;-81
2022/01/10 04:56:11;;;;;;;29.47;23.50;;;;;;;3.16;72.55;100472.91;5064023;28;20079;-81
2022/01/10 04:58:40;;;;;;;26.40;23.60;;;;;;;3.17;73.48;100486.88;5063776;28;20054;-80
2022/01/10 05:01:06;;;;;;;29.47;24.23;;;;;;;2.82;72.57;100423.44;5064371;28;20053;-81
2022/01/10 05:03:34;;;;;;;27.23;24.30;;;;;;;3.09;72.95;100481.25;5064048;28;20063;-81
2022/01/10 05:06:01;;;;;;;29.50;24.37;;;;;;;2.35;73.21;100355.38;5063945;28;20139;-83
2022/01/10 05:08:27;;;;;;;29.67;24.77;;;;;;;2.23;73.63;100356.06;5063881;28;20531;-80
2022/01/10 05:10:54;;;;;;;29.37;26.10;;;;;;;2.11;73.66;100347.19;5064547;28;20494;-81
2022/01/10 05:13:22;;;;;;;30.57;26.47;;;;;;;3.00;73.74;100495.75;5064552;28;20088;-82
2022/01/10 05:15:50;;;;;;;34.93;29.33;;;;;;;2.88;73.31;100467.63;5063940;28;20131;-81
2022/01/10 05:18:19;;;;;;;32.27;28.80;;;;;;;2.82;72.91;100462.75;5063580;28;20049;-81
2022/01/10 05:20:46;;;;;;;31.87;27.80;;;;;;;3.07;72.50;100512.81;5065448;28;20111;-82
2022/01/10 05:23:13;;;;;;;31.87;28.37;;;;;;;2.93;73.17;100497.88;5064591;28;20072;-80
2022/01/10 05:25:40;;;;;;;33.87;27.57;;;;;;;2.40;73.95;100430.22;5067693;28;20093;-81
2022/01/10 05:28:09;;;;;;;31.90;26.97;;;;;;;2.90;74.13;100512.97;5069502;28;20059;-81
2022/01/10 05:30:38;;;;;;;32.93;28.07;;;;;;;2.66;73.88;100476.75;5063246;28;20051;-81
2022/01/10 05:33:07;;;;;;;33.30;28.53;;;;;;;2.81;73.60;100497.75;5063070;28;20044;-81
2022/01/10 05:35:36;;;;;;;33.30;28.57;;;;;;;2.85;74.39;100505.34;5057869;28;20246;-81
2022/01/10 05:38:05;;;;;;;33.23;28.40;;;;;;;2.53;73.58;100446.94;5055998;28;20044;-81
2022/01/10 05:40:32;;;;;;;33.33;28.10;;;;;;;2.83;74.17;100501.97;5063178;28;20181;-80
2022/01/10 05:42:58;;;;;;;33.67;28.47;;;;;;;2.98;73.83;100521.22;5072197;28;20135;-80
2022/01/10 05:45:26;;;;;;;32.33;27.10;;;;;;;2.98;73.61;100526.47;5086472;28;20087;-82
2022/01/10 05:47:52;;;;;;;34.97;28.70;;;;;;;2.39;74.49;100444.28;5087580;28;20484;-80
2022/01/10 05:50:31;;;;;;;33.93;27.43;;;;;;;2.75;73.87;100502.44;5088424;28;20052;-80
2022/01/10 05:52:59;;;;;;;32.37;27.13;;;;;;;2.97;73.67;100530.03;5089565;28;20483;-81
2022/01/10 05:55:29;;;;;;;35.73;28.77;;;;;;;2.88;73.67;100512.19;5088098;28;20048;-80
2022/01/10 05:57:56;;;;;;;33.07;28.53;;;;;;;2.09;74.06;100405.81;5087770;28;20423;-81
2022/01/10 06:00:23;;;;;;;30.60;26.20;;;;;;;2.81;74.74;100518.72;5088164;28;20055;-79
2022/01/10 06:02:50;;;;;;;28.67;25.23;;;;;;;2.89;73.69;100534.84;5088191;28;20533;-80
2022/01/10 06:05:20;;;;;;;30.03;26.13;;;;;;;2.91;73.72;100526.00;5088044;28;20088;-80
2022/01/10 06:07:47;;;;;;;27.80;24.20;;;;;;;2.56;73.31;100457.25;5088455;28;20044;-80
2022/01/10 06:10:14;;;;;;;29.67;24.20;;;;;;;2.82;73.22;100483.72;5073131;28;20522;-81
2022/01/10 06:12:41;;;;;;;30.80;22.63;;;;;;;3.03;73.33;100540.13;5066497;28;20098;-81
2022/01/10 06:15:08;;;;;;;25.87;21.87;;;;;;;3.09;72.96;100539.81;5066612;28;20052;-81
2022/01/10 06:17:35;;;;;;;24.23;21.50;;;;;;;3.01;72.77;100539.41;5067822;28;20059;-80
2022/01/10 06:20:03;;;;;;;26.87;21.70;;;;;;;2.90;72.80;100507.72;5066552;28;20048;-80
2022/01/10 06:22:29;;;;;;;28.07;21.87;;;;;;;3.14;72.76;100547.41;5066460;28;20048;-79
2022/01/10 06:24:57;;;;;;;24.43;20.80;;;;;;;3.18;71.82;100539.25;5067337;28;20113;-79
2022/01/10 06:27:26;;;;;;;25.10;21.40;;;;;;;2.79;71.99;100471.63;5067582;28;20075;-80
2022/01/10 06:29:52;;;;;;;23.43;20.83;;;;;;;3.11;72.24;100537.94;5081955;28;20086;-80
2022/01/10 06:32:21;;;;;;;24.00;21.17;;;;;;;3.06;72.42;100539.13;5087938;28;20127;-81
2022/01/10 06:34:48;;;;;;;25.97;21.60;;;;;;;3.07;72.11;100536.41;5075537;28;20132;-81
2022/01/10 06:37:15;;;;;;;23.40;20.87;;;;;;;2.69;72.17;100487.03;5066855;28;20072;-80
2022/01/10 06:39:42;;;;;;;25.57;22.03;;;;;;;3.11;72.57;100553.66;5067957;28;20054;-79
2022/01/10 06:42:09;;;;;;;24.90;21.00;;;;;;;3.20;72.38;100565.38;5066653;28;20060;-80
2022/01/10 06:44:36;;;;;;;27.90;22.50;;;;;;;3.09;71.30;100544.22;5066501;28;20044;-80
2022/01/10 06:47:03;;;;;;;26.67;21.70;;;;;;;3.18;72.06;100575.13;5066548;28;20056;-81
2022/01/10 06:49:30;;;;;;;26.43;22.53;;;;;;;3.13;72.56;100567.53;5066440;28;20048;-81
2022/01/10 06:51:58;;;;;;;25.90;22.33;;;;;;;3.25;72.18;100584.31;5065888;28;20113;-81
2022/01/10 06:54:25;;;;;;;32.23;23.57;;;;;;;3.18;71.94;100576.00;5065566;28;20151;-82
2022/01/10 06:56:51;;;;;;;29.83;22.57;;;;;;;1.95;70.95;100363.84;5066146;28;20131;-80
2022/01/10 06:59:18;;;;;;;27.17;24.03;;;;;;;3.02;71.00;100543.72;5076254;28;20464;-80
2022/01/10 07:01:46;;;;;;;29.23;24.40;;;;;;;3.36;71.02;100588.97;5086362;28;20441;-81
2022/01/10 07:04:13;;;;;;;27.50;22.97;;;;;;;2.57;70.91;100464.16;5087769;28;20094;-80
2022/01/10 07:06:42;;;;;;;29.83;24.43;;;;;;;3.45;70.52;100598.91;5086211;28;20527;-81
2022/01/10 07:09:09;;;;;;;29.63;23.90;;;;;;;3.33;70.66;100578.66;5081255;28;20059;-80
2022/01/10 07:11:37;;;;;;;29.10;23.97;;;;;;;3.02;70.74;100522.72;5065081;28;20596;-81
2022/01/10 07:14:04;;;;;;;30.37;23.83;;;;;;;3.40;70.22;100588.69;5065762;28;20040;-81
2022/01/10 07:16:31;;;;;;;30.67;24.57;;;;;;;3.19;69.77;100551.44;5066724;28;20041;-80
2022/01/10 07:18:58;;;;;;;28.43;23.63;;;;;;;3.54;69.70;100600.97;5068800;28;20137;-81
2022/01/10 07:21:25;;;;;;;29.33;23.97;;;;;;;3.60;70.10;100605.88;5075868;28;20044;-80
2022/01/10 07:23:52;;;;;;;27.03;23.30;;;;;;;3.42;69.34;100572.84;5076457;28;20163;-80
2022/01/10 07:26:19;;;;;;;30.87;24.17;;;;;;;3.53;68.85;100585.34;5083671;28;20298;-82
2022/01/10 07:28:50;;;;;;;26.27;20.67;;;;;;;3.85;68.15;100618.34;5076576;28;20044;-81
2022/01/10 07:31:16;;;;;;;28.07;23.00;;;;;;;3.66;67.54;100580.19;5066466;28;20323;-80
2022/01/10 07:33:43;;;;;;;24.27;21.67;;;;;;;3.90;68.16;100620.72;5066014;28;20131;-80
2022/01/10 07:36:10;;;;;;;26.80;21.70;;;;;;;3.73;67.68;100598.09;5065986;28;20091;-81
2022/01/10 07:38:36;;;;;;;24.00;20.47;;;;;;;3.72;67.93;100606.09;5066266;28;20139;-81
2022/01/10 07:41:07;;;;;;;26.97;21.93;;;;;;;3.12;67.71;100517.78;5065765;28;20396;-80
2022/01/10 07:43:35;;;;;;;28.43;22.50;;;;;;;3.82;67.87;100622.97;5065933;28;20060;-80
2022/01/10 07:46:03;;;;;;;25.93;22.47;;;;;;;4.00;67.26;100636.75;5065760;28;20050;-80
2022/01/10 07:48:33;;;;;;;26.17;21.63;;;;;;;4.00;67.42;100644.63;5049334;28;20063;-81
2022/01/10 07:51:01;;;;;;;26.63;21.30;;;;;;;3.32;67.62;100537.59;5065820;28;20420;-82
2022/01/10 07:53:27;;;;;;;25.47;20.37;;;;;;;3.85;66.93;100628.88;5066082;28;20048;-79
2022/01/10 07:55:57;;;;;;;24.83;19.70;;;;;;;3.98;66.48;100638.63;5065717;28;20087;-80
2022/01/10 07:58:24;;;;;;;22.97;19.30;;;;;;;3.62;67.05;100590.03;5067519;28;20048;-81
2022/01/10 08:00:51;;;;;;;25.03;20.43;;;;;;;3.74;67.24;100606.81;5066307;28;20143;-81
2022/01/10 08:03:21;;;;;;;20.40;17.87;;;;;;;3.97;67.09;100653.53;5063839;28;20573;-78
2022/01/10 08:05:47;;;;;;;23.13;18.93;;;;;;;4.11;67.29;100654.50;5065570;28;20176;-79
2022/01/10 08:08:14;;;;;;;25.23;19.47;;;;;;;4.11;66.94;100671.09;5065149;28;20053;-80
2022/01/10 08:10:41;;;;;;;24.53;19.40;;;;;;;4.04;67.81;100678.50;5065259;28;20652;-81
2022/01/10 08:13:12;;;;;;;23.10;18.80;;;;;;;3.83;67.71;100645.66;5065564;28;20052;-80
2022/01/10 08:15:39;;;;;;;22.93;18.37;;;;;;;3.46;67.78;100608.47;5064983;28;20152;-80
2022/01/10 08:18:07;;;;;;;20.97;17.70;;;;;;;4.04;67.37;100683.75;5064997;28;20122;-80
2022/01/10 08:20:36;;;;;;;26.43;19.20;;;;;;;3.98;66.92;100655.25;5065201;28;20044;-79
2022/01/10 08:23:02;;;;;;;19.23;16.13;;;;;;;3.94;66.33;100648.47;5064957;28;20488;-80
2022/01/10 08:25:29;;;;;;;21.63;17.60;;;;;;;4.12;67.53;100696.44;5064957;28;20044;-82
2022/01/10 08:27:55;;;;;;;22.20;17.87;;;;;;;3.24;67.11;100547.69;5065074;28;20052;-80
2022/01/10 08:30:25;;;;;;;21.43;16.30;;;;;;;3.86;66.28;100650.75;5064749;28;20056;-82
2022/01/10 08:32:54;;;;;;;20.43;16.73;;;;;;;3.95;66.70;100660.66;5066297;28;20057;-80
2022/01/10 08:35:21;;;;;;;23.67;17.97;;;;;;;4.10;67.09;100689.59;5065201;28;20139;-81
2022/01/10 08:37:48;;;;;;;21.97;17.03;;;;;;;3.92;66.98;100658.25;5066241;28;20158;-80
2022/01/10 08:40:18;;;;;;;21.13;16.83;;;;;;;4.23;66.58;100707.16;5064800;28;20047;-79
2022/01/10 08:42:44;;;;;;;18.53;16.00;;;;;;;4.30;66.42;100723.41;5066534;28;20052;-79
2022/01/10 08:45:11;;;;;;;20.07;16.33;;;;;;;4.25;66.40;100704.44;5084864;28;20121;-81
2022/01/10 08:47:38;;;;;;;19.90;15.53;;;;;;;4.21;66.12;100692.41;5086108;28;20131;-80
2022/01/10 08:50:07;;;;;;;18.50;15.93;;;;;;;4.47;66.22;100733.72;5086127;28;20343;-80
2022/01/10 08:52:34;;;;;;;18.97;16.07;;;;;;;3.79;65.41;100621.38;5085197;28;20306;-81
2022/01/10 08:55:01;;;;;;;20.57;15.77;;;;;;;4.46;65.28;100713.59;5084623;28;20499;-79
2022/01/10 08:57:27;;;;;;;18.13;15.83;;;;;;;4.38;65.18;100705.38;5084728;28;20479;-80
2022/01/10 09:00:03;;;;;;;20.03;16.73;;;;;;;4.57;65.36;100720.00;5085599;28;20083;-78
2022/01/10 09:03:01;;;;;;;;;;;;;;;;;;;;;
2022/01/10 09:05:48;;;;;;;20.37;16.33;;;;;;;3.05;65.02;100472.72;5088211;28;20104;-83
2022/01/10 09:08:45;;;;;;;19.00;15.67;;;;;;;4.69;65.06;100733.25;5086499;28;20056;-78
2022/01/10 09:11:24;;;;;;;18.33;15.17;;;;;;;4.70;65.23;100741.97;5045601;28;20091;-78
2022/01/10 09:13:57;;;;;;;21.47;16.30;;;;;;;4.69;65.10;100741.13;5046697;28;20099;-80
2022/01/10 09:16:29;;;;;;;21.77;16.10;;;;;;;3.87;64.81;100614.81;5046338;28;20049;-81
2022/01/10 09:19:05;;;;;;;20.47;16.20;;;;;;;4.77;64.72;100753.78;5049803;28;20061;-84
2022/01/10 09:21:50;;;;;;;;;;;;;;;;;;;;;
2022/01/10 09:24:46;;;;;;;20.23;16.43;;;;;;;4.86;64.54;100769.00;5053011;28;20060;-81
2022/01/10 09:27:25;;;;;;;20.07;16.20;;;;;;;4.80;64.73;100769.38;5050406;28;20060;-80
2022/01/10 09:29:57;;;;;;;19.87;16.40;;;;;;;4.64;63.75;100737.94;5049416;28;20045;-80
2022/01/10 09:32:34;;;;;;;18.23;15.10;;;;;;;3.38;63.35;100518.88;5048867;28;20138;-82
2022/01/10 09:35:11;;;;;;;24.55;16.98;;;;;;;3.50;63.01;100536.50;5049681;28;20404;-80
2022/01/10 09:37:59;;;;;;;18.90;15.93;;;;;;;4.93;63.51;100786.09;5049439;28;20570;-79
2022/01/10 09:40:33;;;;;;;21.93;16.23;;;;;;;4.63;63.48;100733.59;5074501;28;20107;-82
2022/01/10 09:43:11;;;;;;;20.90;16.30;;;;;;;5.00;63.52;100785.72;5089581;28;20048;-83
2022/01/10 09:46:05;;;;;;;20.47;16.17;;;;;;;5.10;63.05;100792.09;5048416;28;20061;-78
2022/01/10 09:48:37;;;;;;;19.88;15.95;;;;;;;5.11;62.51;100791.16;5033746;28;20486;-82
2022/01/10 09:51:26;;;;;;;20.83;15.03;;;;;;;4.43;62.77;100666.50;5063471;28;20411;-79
2022/01/10 09:54:14;;;;;;;18.97;15.63;;;;;;;4.33;63.09;100654.03;5050124;28;20423;-80
2022/01/10 09:56:54;;;;;;;18.95;15.73;;;;;;;5.23;63.11;100803.53;5065078;28;20053;-81
2022/01/10 09:59:36;;;;;;;18.10;15.17;;;;;;;3.63;63.00;100542.66;5048447;28;20476;-83
2022/01/10 10:02:24;;;;;;;19.67;15.03;;;;;;;4.29;62.64;100640.22;5048871;28;20063;-78
2022/01/10 10:05:04;;;;;;;;;;;;;;;4.91;62.61;100747.69;5063701;28;20068;-82
2022/01/10 10:07:52;;;;;;;18.83;14.93;;;;;;;5.40;62.29;100812.16;5063564;28;19947;-80
2022/01/10 10:11:05;;;;;;;17.25;14.35;;;;;;;4.70;61.96;100699.88;5066469;28;20088;-80
2022/01/10 10:14:01;;;;;;;18.63;14.20;;;;;;;5.45;61.87;100803.00;5070685;28;20155;-80
2022/01/10 10:16:53;;;;;;;17.85;13.90;;;;;;;3.66;61.17;100522.41;5068414;28;20431;-80
2022/01/10 10:19:48;;;;;;;18.70;14.57;;;;;;;4.92;62.45;100742.31;5054690;28;20222;-80
2022/01/10 10:22:34;;;;;;;16.65;13.45;;;;;;;5.13;62.35;100758.53;5054379;28;20051;-80
2022/01/10 10:25:33;;;;;;;19.25;13.15;;;;;;;3.88;61.90;100554.28;5069292;28;20106;-80
2022/01/10 10:28:16;;;;;;;16.48;13.38;;;;;;;3.78;61.95;100537.41;5067599;28;20123;-80
2022/01/10 10:31:03;;;;;;;17.13;13.15;;;;;;;5.51;62.11;100804.38;5069636;28;20238;-81
2022/01/10 10:36:38;;;;;;;16.05;12.70;;;;;;;5.28;62.04;100764.59;5077560;28;20071;-81
2022/01/10 10:39:19;;;;;;;20.33;12.68;;;;;;;5.57;61.75;100811.91;5075796;28;20063;-81
2022/01/10 10:41:58;;;;;;;18.85;13.80;;;;;;;3.94;62.14;100567.06;5073696;28;20045;-81
2022/01/10 10:44:35;;;;;;;17.30;12.80;;;;;;;3.98;61.35;100560.69;5069626;28;20261;-81
2022/01/10 10:47:08;;;;;;;15.43;12.38;;;;;;;4.38;61.53;100639.66;5052635;28;20056;-79
2022/01/10 10:49:56;;;;;;;16.38;12.98;;;;;;;3.78;62.41;100543.50;5053043;28;20053;-81
2022/01/10 10:52:41;;;;;;;17.95;14.75;;;;;;;5.16;62.74;100778.53;5052568;28;20045;-81
2022/01/10 10:55:18;;;;;;;18.50;13.63;;;;;;;4.19;62.97;100625.97;5032817;28;20362;-81
2022/01/10 10:57:54;;;;;;;17.95;14.52;;;;;;;4.89;64.45;100741.66;5089684;28;20079;-81
2022/01/10 11:00:33;;;;;;;18.75;14.88;;;;;;;3.89;63.85;100558.63;5089926;28;20044;-81
2022/01/10 11:03:17;;;;;;;19.05;14.52;;;;;;;5.62;62.96;100857.22;5086702;28;20464;-79
2022/01/10 11:06:05;;;;;;;20.38;14.98;;;;;;;3.95;62.23;100587.13;5086809;28;20126;-80
2022/01/10 11:08:39;;;;;;;18.77;14.55;;;;;;;5.60;62.00;100839.84;5089429;28;20143;-83
2022/01/10 11:11:20;;;;;;;21.98;14.55;;;;;;;4.01;61.83;100585.91;5050919;28;20448;-80
2022/01/10 11:14:03;;;;;;;20.65;16.58;;;;;;;5.12;62.15;100769.16;5065207;28;20049;-82
2022/01/10 11:16:52;;;;;;;;;;;;;;;;;;;;;
2022/01/10 11:19:27;;;;;;;18.02;14.32;;;;;;;5.63;62.42;100853.66;5049814;28;20056;-82
2022/01/10 11:22:23;;;;;;;;;;;;;;;;;;;;;
2022/01/10 11:25:27;;;;;;;19.40;15.48;;;;;;;5.77;61.90;100840.44;5049143;28;20060;-81
2022/01/10 11:28:37;;;;;;;24.05;17.15;;;;;;;5.84;62.04;100840.03;5049608;28;20044;-87
2022/01/10 11:32:06;;;;;;;19.92;16.83;;;;;;;5.92;62.32;100832.47;5011708;28;20075;-83
2022/01/10 11:35:55;;;;;;;;;;;;;;;;;;;;;
2022/01/10 11:39:11;;;;;;;;;;;;;;;;;;;;;
2022/01/10 11:42:45;;;;;;;;;;;;;;;;;;;;;
2022/01/10 11:45:50;;;;;;;;;;;;;;;;;;;;;
2022/01/10 11:49:22;;;;;;;26.13;19.08;;;;;;;5.59;62.80;100793.38;5025854;28;20057;-80
2022/01/10 11:52:11;;;;;;;28.63;21.73;;;;;;;6.00;62.17;100856.56;5023678;28;20299;-80
2022/01/10 11:55:07;;;;;;;;;;;;;;;;;;;;;
2022/01/10 11:58:01;;;;;;;26.60;21.92;;;;;;;5.95;63.17;100863.94;5024658;28;20559;-79
2022/01/10 12:00:55;;;;;;;;;;;;;;;;;;;;;
2022/01/10 12:03:41;;;;;;;;;;;;;;;;;;;;;
2022/01/10 12:06:26;;;;;;;26.85;20.73;;;;;;;6.06;62.60;100853.53;5067862;28;20411;-83
2022/01/10 12:09:02;;;;;;;29.42;21.48;;;;;;;6.05;62.64;100849.22;5049853;28;20037;-80
2022/01/10 12:11:32;;;;;;;31.65;22.40;;;;;;;6.11;62.21;100858.50;5048761;28;20063;-80
2022/01/10 12:14:00;;;;;;;25.23;20.08;;;;;;;6.22;61.60;100856.00;5047673;28;20463;-81
2022/01/10 12:16:27;;;;;;;29.17;21.02;;;;;;;6.15;61.58;100858.19;5046730;28;20048;-81